Time;durP1;ratioP1;P1;durP2;ratioP2;P2;SDS_P1;SDS_P2;PMS_P1;PMS_P2;Temp;Humidity;BMP_temperature;BMP_pressure;BME280_temperature;BME280_humidity;BME280_pressure;Samples;Min_cycle;Max_cycle;Signal;HPM_P1;HPM_P2
2021/09/17 00:00:06;;;;;;;13.00;11.70;;;17.90;90.40;;;;;;5038550;28;20168;-83
2021/09/17 00:02:34;;;;;;;15.87;11.80;;;18.00;89.00;;;;;;5037410;28;20173;-84
2021/09/17 00:05:04;;;;;;;13.40;11.70;;;18.10;87.00;;;;;;5038000;28;20197;-83
2021/09/17 00:07:37;;;;;;;12.73;11.43;;;18.10;84.50;;;;;;5037893;28;20186;-84
2021/09/17 00:10:08;;;;;;;12.90;11.57;;;18.10;84.00;;;;;;5040356;28;20213;-83
2021/09/17 00:12:34;;;;;;;14.00;11.77;;;18.10;82.80;;;;;;5038512;28;20284;-80
2021/09/17 00:14:59;;;;;;;13.17;11.77;;;18.20;80.80;;;;;;5037874;28;20213;-83
2021/09/17 00:17:29;;;;;;;13.20;11.63;;;18.10;80.90;;;;;;5037007;28;20252;-81
2021/09/17 00:19:54;;;;;;;13.27;11.77;;;18.10;81.90;;;;;;5037421;28;20642;-81
2021/09/17 00:22:20;;;;;;;13.00;11.53;;;18.10;81.50;;;;;;5036468;28;20187;-82
2021/09/17 00:24:46;;;;;;;13.50;12.10;;;18.00;82.90;;;;;;5037790;28;20197;-82
2021/09/17 00:27:11;;;;;;;14.90;11.57;;;18.10;81.70;;;;;;5037441;28;20642;-81
2021/09/17 00:29:37;;;;;;;13.73;12.37;;;18.00;83.00;;;;;;5037270;28;20212;-82
2021/09/17 00:32:03;;;;;;;13.63;12.20;;;18.10;81.30;;;;;;5038642;28;20248;-84
2021/09/17 00:34:29;;;;;;;13.97;12.50;;;18.10;80.20;;;;;;5037608;28;20641;-82
2021/09/17 00:36:55;;;;;;;13.90;11.73;;;18.10;80.30;;;;;;5038008;28;20224;-80
2021/09/17 00:39:20;;;;;;;14.03;12.17;;;17.90;82.90;;;;;;5037908;28;20185;-82
2021/09/17 00:41:47;;;;;;;17.17;12.47;;;18.10;82.50;;;;;;5038099;28;20173;-81
2021/09/17 00:44:22;;;;;;;16.20;11.93;;;18.00;84.10;;;;;;5036777;28;20173;-82
2021/09/17 00:46:51;;;;;;;14.03;11.83;;;18.00;83.50;;;;;;5037033;28;20504;-82
2021/09/17 00:49:33;;;;;;;15.50;13.13;;;18.00;82.50;;;;;;5035576;28;20219;-82
2021/09/17 00:52:14;;;;;;;14.70;12.53;;;17.80;87.00;;;;;;5035816;28;20186;-81
2021/09/17 00:54:43;;;;;;;14.23;12.73;;;17.50;90.30;;;;;;5035916;28;20232;-81
2021/09/17 00:57:09;;;;;;;13.87;12.47;;;17.50;90.00;;;;;;5019396;28;20197;-85
2021/09/17 00:59:39;;;;;;;14.03;12.07;;;17.20;92.20;;;;;;5040100;28;20264;-85
2021/09/17 01:02:06;;;;;;;14.00;12.50;;;17.10;93.40;;;;;;5039001;28;20166;-82
2021/09/17 01:04:35;;;;;;;13.43;12.03;;;17.10;93.70;;;;;;5038204;28;20236;-91
2021/09/17 01:07:46;;;;;;;15.80;12.87;;;17.00;93.80;;;;;;5039935;28;20162;-87
2021/09/17 01:10:39;;;;;;;15.13;13.10;;;17.10;93.10;;;;;;5042246;28;20209;-82
2021/09/17 01:13:06;;;;;;;16.97;14.00;;;17.10;92.30;;;;;;5057874;28;20702;-83
2021/09/17 01:15:46;;;;;;;17.33;14.23;;;16.90;92.20;;;;;;5058587;28;20173;-82
2021/09/17 01:18:14;;;;;;;16.17;14.47;;;16.60;93.80;;;;;;5057759;28;20194;-82
2021/09/17 01:20:41;;;;;;;16.17;14.47;;;16.60;95.30;;;;;;5055830;28;20170;-79
2021/09/17 01:23:07;;;;;;;16.87;15.07;;;16.30;96.20;;;;;;5056396;28;20165;-82
2021/09/17 01:25:33;;;;;;;15.77;14.23;;;16.30;96.80;;;;;;5055714;28;20174;-83
2021/09/17 01:27:59;;;;;;;16.30;14.70;;;16.20;96.90;;;;;;5088395;28;20170;-80
2021/09/17 01:30:27;;;;;;;18.43;15.00;;;16.20;97.10;;;;;;5049560;28;20186;-81
2021/09/17 01:32:53;;;;;;;15.77;14.10;;;16.20;97.30;;;;;;5048046;28;20169;-82
2021/09/17 01:35:21;;;;;;;16.40;14.63;;;16.20;97.60;;;;;;5083466;28;20241;-79
2021/09/17 01:37:48;;;;;;;16.27;14.63;;;16.20;97.70;;;;;;5052349;28;20166;-80
2021/09/17 01:40:16;;;;;;;17.60;14.67;;;16.20;97.70;;;;;;5048933;28;20169;-80
2021/09/17 01:42:42;;;;;;;17.73;14.63;;;16.30;98.10;;;;;;5051409;28;20170;-85
2021/09/17 01:45:10;;;;;;;18.60;15.60;;;16.30;98.00;;;;;;5048182;28;20173;-82
2021/09/17 01:47:44;;;;;;;16.37;14.67;;;16.10;97.90;;;;;;5041173;28;20209;-80
2021/09/17 01:50:13;;;;;;;19.90;15.63;;;16.20;98.30;;;;;;5041444;28;20214;-83
2021/09/17 01:52:41;;;;;;;16.17;14.40;;;16.20;97.70;;;;;;5051909;28;20154;-81
2021/09/17 01:55:31;;;;;;;18.03;16.03;;;16.30;97.20;;;;;;5057855;28;20249;-80
2021/09/17 01:58:03;;;;;;;18.50;15.73;;;16.20;97.30;;;;;;5046122;28;20174;-81
2021/09/17 02:00:44;;;;;;;20.23;15.73;;;16.10;97.70;;;;;;5045129;28;20174;-82
2021/09/17 02:03:15;;;;;;;18.43;15.47;;;16.00;98.10;;;;;;5040582;28;20164;-85
2021/09/17 02:05:58;;;;;;;18.77;15.83;;;16.00;98.70;;;;;;5041690;28;20166;-85
2021/09/17 02:11:46;;;;;;;19.23;16.63;;;15.80;99.00;;;;;;5041757;28;20716;-81
2021/09/17 02:14:43;;;;;;;19.27;17.00;;;15.80;99.50;;;;;;5042366;28;20193;-84
2021/09/17 02:17:08;;;;;;;20.53;16.60;;;15.70;99.70;;;;;;5043680;28;20224;-85
2021/09/17 02:19:35;;;;;;;21.63;17.03;;;15.70;99.90;;;;;;5056862;28;20181;-81
2021/09/17 02:22:03;;;;;;;19.77;17.03;;;15.70;99.90;;;;;;5053269;28;20167;-81
2021/09/17 02:24:29;;;;;;;21.33;17.63;;;15.70;99.90;;;;;;5047336;28;20166;-82
2021/09/17 02:27:00;;;;;;;19.70;17.13;;;15.70;99.90;;;;;;5039832;28;20166;-82
2021/09/17 02:29:40;;;;;;;21.13;17.90;;;15.70;99.90;;;;;;5034548;28;20211;-84
2021/09/17 02:32:06;;;;;;;23.73;18.57;;;15.70;99.90;;;;;;5034214;28;20178;-81
2021/09/17 02:34:40;;;;;;;21.33;18.87;;;15.60;99.90;;;;;;5033849;28;20177;-82
2021/09/17 02:37:08;;;;;;;21.87;17.97;;;15.70;99.90;;;;;;5035015;28;20208;-82
2021/09/17 02:39:33;;;;;;;24.73;19.00;;;15.70;99.90;;;;;;5033333;28;20253;-81
2021/09/17 02:42:02;;;;;;;21.40;18.67;;;15.80;99.90;;;;;;5033548;28;20204;-86
2021/09/17 02:44:30;;;;;;;22.10;19.70;;;15.70;99.90;;;;;;5035017;28;20174;-81
2021/09/17 02:46:56;;;;;;;22.67;20.20;;;15.80;99.90;;;;;;5034513;28;20182;-81
2021/09/17 02:49:23;;;;;;;26.17;20.37;;;15.70;99.90;;;;;;5032854;28;20693;-87
2021/09/17 02:51:50;;;;;;;23.63;20.53;;;15.80;99.90;;;;;;5039243;28;20176;-86
2021/09/17 02:54:15;;;;;;;24.13;20.67;;;15.70;99.90;;;;;;5046048;28;20252;-82
2021/09/17 02:56:41;;;;;;;23.40;20.87;;;15.70;99.90;;;;;;5046348;28;20169;-82
2021/09/17 02:59:07;;;;;;;24.03;21.07;;;15.70;99.90;;;;;;5046670;28;20176;-83
2021/09/17 03:01:33;;;;;;;28.40;22.27;;;15.60;99.90;;;;;;5048741;28;20169;-81
2021/09/17 03:04:00;;;;;;;25.87;21.67;;;15.80;99.90;;;;;;5047476;28;20173;-83
2021/09/17 03:06:27;;;;;;;25.53;22.30;;;15.70;99.90;;;;;;5044662;28;20197;-92
2021/09/17 03:08:53;;;;;;;26.00;21.67;;;15.60;99.90;;;;;;5047575;28;20208;-81
2021/09/17 03:11:19;;;;;;;25.20;22.50;;;15.60;99.90;;;;;;5048575;28;20158;-79
2021/09/17 03:13:53;;;;;;;27.87;22.50;;;15.50;99.90;;;;;;5056334;28;20149;-80
2021/09/17 03:16:18;;;;;;;26.30;22.47;;;15.50;99.90;;;;;;5055402;28;20197;-85
2021/09/17 03:18:47;;;;;;;25.13;22.43;;;15.70;99.90;;;;;;5052771;28;20189;-81
2021/09/17 03:21:16;;;;;;;25.00;22.33;;;15.60;99.90;;;;;;5049563;28;20170;-82
2021/09/17 03:23:42;;;;;;;26.00;23.30;;;15.50;99.90;;;;;;5047988;28;20184;-82
2021/09/17 03:26:08;;;;;;;26.83;24.00;;;15.50;99.90;;;;;;5041726;28;20173;-81
2021/09/17 03:28:34;;;;;;;28.73;23.63;;;15.50;99.90;;;;;;5028379;28;20225;-81
2021/09/17 03:31:00;;;;;;;26.70;23.57;;;15.50;99.90;;;;;;5048426;28;20179;-81
2021/09/17 03:33:28;;;;;;;31.13;25.70;;;15.60;99.90;;;;;;5040768;28;20173;-81
2021/09/17 03:35:54;;;;;;;30.50;25.80;;;15.60;99.90;;;;;;5036078;28;20193;-81
2021/09/17 03:38:25;;;;;;;30.90;25.63;;;15.50;99.90;;;;;;5035745;28;20166;-82
2021/09/17 03:41:21;;;;;;;28.93;25.63;;;15.70;99.90;;;;;;5034785;28;20174;-81
2021/09/17 03:43:57;;;;;;;33.07;26.37;;;15.60;99.90;;;;;;5039411;28;20234;-82
2021/09/17 03:46:22;;;;;;;30.53;26.20;;;15.70;99.90;;;;;;5036711;28;20575;-82
2021/09/17 03:48:48;;;;;;;32.57;27.10;;;15.70;99.90;;;;;;5035129;28;20395;-82
2021/09/17 03:51:14;;;;;;;33.40;26.57;;;15.60;99.90;;;;;;5037536;28;20176;-82
2021/09/17 03:53:40;;;;;;;33.50;26.50;;;15.60;99.90;;;;;;5034514;28;20261;-82
2021/09/17 03:56:10;;;;;;;31.67;27.07;;;15.70;99.90;;;;;;5034232;28;20170;-82
2021/09/17 03:58:36;;;;;;;32.77;26.93;;;15.60;99.90;;;;;;5033355;28;20575;-81
2021/09/17 04:01:06;;;;;;;30.40;26.23;;;15.70;99.90;;;;;;5035234;28;20646;-81
2021/09/17 04:03:49;;;;;;;34.67;26.70;;;15.60;99.90;;;;;;5034131;28;20261;-81
2021/09/17 04:06:16;;;;;;;31.03;25.93;;;15.80;99.90;;;;;;5035493;28;20660;-81
2021/09/17 04:08:59;;;;;;;30.33;26.60;;;15.80;99.90;;;;;;5040987;28;20218;-79
2021/09/17 04:11:45;;;;;;;34.43;27.07;;;15.80;99.90;;;;;;5043331;28;20764;-83
2021/09/17 04:14:12;;;;;;;34.10;26.93;;;15.80;99.90;;;;;;5045351;28;20626;-81
2021/09/17 04:16:39;;;;;;;33.53;28.53;;;15.70;99.90;;;;;;5047618;28;20197;-81
2021/09/17 04:19:27;;;;;;;34.60;27.13;;;15.60;99.90;;;;;;5044192;28;20182;-81
2021/09/17 04:22:05;;;;;;;35.17;30.60;;;15.50;99.90;;;;;;5040696;28;20576;-82
2021/09/17 04:24:32;;;;;;;37.37;31.30;;;15.60;99.90;;;;;;5039349;28;20641;-82
2021/09/17 04:27:15;;;;;;;37.90;29.47;;;15.60;99.90;;;;;;5035536;28;20174;-82
2021/09/17 04:29:45;;;;;;;34.10;29.93;;;15.60;99.90;;;;;;5036956;28;20675;-81
2021/09/17 04:32:10;;;;;;;36.63;29.23;;;15.60;99.90;;;;;;5036750;28;20162;-83
2021/09/17 04:34:37;;;;;;;35.73;29.60;;;15.60;99.90;;;;;;5035069;28;20520;-82
2021/09/17 04:37:03;;;;;;;37.97;29.87;;;15.60;99.90;;;;;;5036619;28;20192;-81
2021/09/17 04:39:30;;;;;;;36.20;29.53;;;15.60;99.90;;;;;;5035314;28;20182;-82
2021/09/17 04:41:56;;;;;;;34.70;30.70;;;15.60;99.90;;;;;;5034791;28;20178;-87
2021/09/17 04:44:23;;;;;;;42.33;29.77;;;15.60;99.90;;;;;;5073873;28;20178;-85
2021/09/17 04:46:48;;;;;;;36.10;30.33;;;15.60;99.90;;;;;;5038572;28;20733;-82
2021/09/17 04:49:14;;;;;;;38.00;29.67;;;15.60;99.90;;;;;;5037632;28;20216;-84
2021/09/17 04:51:40;;;;;;;39.13;30.13;;;15.70;99.90;;;;;;5037291;28;20197;-90
2021/09/17 04:54:06;;;;;;;36.27;30.17;;;15.60;99.90;;;;;;5041686;28;20513;-85
2021/09/17 04:56:31;;;;;;;39.13;31.23;;;15.60;99.90;;;;;;5039737;28;20566;-88
2021/09/17 04:58:57;;;;;;;39.00;30.83;;;15.50;99.90;;;;;;5038954;28;20180;-87
2021/09/17 05:01:23;;;;;;;43.87;31.10;;;15.40;99.90;;;;;;5039131;28;20660;-89
2021/09/17 05:03:50;;;;;;;42.57;31.30;;;15.50;99.90;;;;;;5041042;28;20249;-92
2021/09/17 05:06:16;;;;;;;37.33;30.60;;;15.40;99.90;;;;;;5040211;28;20170;-93
2021/09/17 05:08:42;;;;;;;38.07;31.27;;;15.40;99.90;;;;;;5038438;28;20220;-90
2021/09/17 05:11:08;;;;;;;41.03;31.27;;;15.50;99.90;;;;;;5039108;28;20626;-91
2021/09/17 05:13:33;;;;;;;42.37;31.27;;;15.50;99.90;;;;;;5040787;28;20177;-88
2021/09/17 05:15:59;;;;;;;40.77;31.77;;;15.40;99.90;;;;;;5039625;28;20196;-93
2021/09/17 05:18:26;;;;;;;39.13;31.53;;;15.50;99.90;;;;;;5040363;28;20166;-85
2021/09/17 05:20:52;;;;;;;41.80;32.00;;;15.50;99.90;;;;;;5040711;28;20264;-85
2021/09/17 05:23:18;;;;;;;39.20;31.57;;;15.40;99.90;;;;;;5042829;28;20684;-87
2021/09/17 05:25:44;;;;;;;40.87;32.13;;;15.50;99.90;;;;;;5041057;28;20183;-83
2021/09/17 05:28:11;;;;;;;41.70;33.73;;;15.30;99.90;;;;;;5040682;28;20693;-86
2021/09/17 05:30:37;;;;;;;41.93;33.53;;;15.20;99.90;;;;;;5039389;28;20276;-87
2021/09/17 05:33:02;;;;;;;42.77;32.63;;;15.20;99.90;;;;;;5040599;28;20189;-86
2021/09/17 05:35:30;;;;;;;50.40;34.73;;;15.30;99.90;;;;;;5056710;28;20405;-80
2021/09/17 05:37:57;;;;;;;48.47;34.33;;;15.40;99.90;;;;;;5056789;28;20177;-81
2021/09/17 05:40:23;;;;;;;46.10;35.17;;;15.40;99.90;;;;;;5048123;28;20187;-84
2021/09/17 05:42:50;;;;;;;43.73;35.00;;;15.50;99.90;;;;;;5046001;28;20201;-82
2021/09/17 05:45:16;;;;;;;42.70;34.33;;;15.40;99.90;;;;;;5043402;28;20630;-81
2021/09/17 05:47:42;;;;;;;48.83;34.63;;;15.60;99.90;;;;;;5040931;28;20186;-83
2021/09/17 05:50:09;;;;;;;45.50;33.73;;;15.60;99.90;;;;;;5038026;28;20221;-81
2021/09/17 05:52:35;;;;;;;46.93;34.40;;;15.60;99.90;;;;;;5036572;28;20199;-85
2021/09/17 05:55:01;;;;;;;52.40;35.93;;;15.60;99.90;;;;;;5034774;28;20264;-83
2021/09/17 05:57:27;;;;;;;43.87;35.53;;;15.60;99.90;;;;;;5035173;28;20593;-81
2021/09/17 05:59:52;;;;;;;47.80;34.93;;;15.70;99.90;;;;;;5046369;28;20150;-86
2021/09/17 06:02:19;;;;;;;49.40;33.97;;;15.80;99.90;;;;;;5054889;28;20774;-81
2021/09/17 06:04:44;;;;;;;48.00;33.80;;;15.80;99.90;;;;;;5038486;28;20260;-85
2021/09/17 06:07:11;;;;;;;47.80;34.40;;;15.80;99.90;;;;;;5048888;28;20174;-82
2021/09/17 06:09:37;;;;;;;46.00;34.90;;;15.70;99.90;;;;;;5043101;28;20279;-87
2021/09/17 06:12:07;;;;;;;50.73;35.43;;;15.50;99.90;;;;;;5045733;28;20161;-86
2021/09/17 06:14:33;;;;;;;52.00;36.80;;;15.40;99.90;;;;;;5048857;28;20157;-81
2021/09/17 06:16:59;;;;;;;58.43;39.70;;;15.40;99.90;;;;;;5058200;28;20184;-83
2021/09/17 06:19:24;;;;;;;65.87;41.60;;;15.30;99.90;;;;;;5057564;28;20184;-82
2021/09/17 06:21:51;;;;;;;64.07;41.20;;;15.40;99.90;;;;;;5058148;28;20181;-85
2021/09/17 06:24:17;;;;;;;60.10;40.50;;;15.40;99.90;;;;;;5057423;28;20224;-79
2021/09/17 06:26:43;;;;;;;63.17;41.23;;;15.40;99.90;;;;;;5037476;28;20618;-81
2021/09/17 06:29:10;;;;;;;60.93;40.60;;;15.40;99.90;;;;;;5033534;28;20209;-82
2021/09/17 06:31:37;;;;;;;62.60;42.23;;;15.40;99.90;;;;;;5031868;28;20176;-82
2021/09/17 06:34:05;;;;;;;70.10;44.20;;;15.40;99.90;;;;;;5033062;28;20602;-83
2021/09/17 06:36:31;;;;;;;77.27;44.87;;;15.50;99.90;;;;;;5034369;28;20181;-82
2021/09/17 06:39:00;;;;;;;82.50;46.73;;;15.50;99.90;;;;;;5038042;28;20223;-83
2021/09/17 06:41:27;;;;;;;90.70;48.53;;;15.70;99.90;;;;;;5036174;28;20205;-87
2021/09/17 06:43:53;;;;;;;95.17;49.10;;;15.70;99.90;;;;;;5019069;28;20188;-87
2021/09/17 06:46:18;;;;;;;106.53;48.63;;;15.70;99.90;;;;;;5036883;28;20170;-87
2021/09/17 06:48:44;;;;;;;114.10;49.80;;;15.60;99.90;;;;;;5033457;28;20209;-86
2021/09/17 06:51:09;;;;;;;96.70;49.57;;;15.60;99.90;;;;;;5038020;28;20180;-84
2021/09/17 06:53:35;;;;;;;109.83;51.27;;;15.60;99.90;;;;;;5036375;28;20176;-84
2021/09/17 06:56:01;;;;;;;104.70;51.73;;;15.60;99.90;;;;;;5035581;28;20612;-81
2021/09/17 06:58:31;;;;;;;99.83;50.70;;;15.50;99.90;;;;;;5033505;28;20174;-82
2021/09/17 07:00:58;;;;;;;109.20;53.37;;;15.40;99.90;;;;;;5033190;28;20170;-82
2021/09/17 07:03:24;;;;;;;106.77;53.07;;;15.50;99.90;;;;;;5034625;28;20174;-81
2021/09/17 07:05:50;;;;;;;104.70;52.60;;;15.60;99.90;;;;;;5033734;28;20176;-82
2021/09/17 07:08:18;;;;;;;94.43;53.43;;;15.70;99.90;;;;;;5032157;28;20184;-82
2021/09/17 07:10:44;;;;;;;96.77;49.30;;;15.70;99.90;;;;;;5032802;28;20205;-84
2021/09/17 07:13:11;;;;;;;90.77;48.00;;;15.80;99.90;;;;;;5033948;28;20197;-82
2021/09/17 07:15:37;;;;;;;83.27;48.57;;;15.80;99.90;;;;;;5034150;28;20182;-81
2021/09/17 07:18:04;;;;;;;87.63;49.27;;;15.70;99.90;;;;;;5032081;28;20699;-82
2021/09/17 07:20:30;;;;;;;89.57;51.33;;;15.90;99.90;;;;;;5032062;28;20650;-82
2021/09/17 07:22:57;;;;;;;88.97;50.53;;;16.00;99.90;;;;;;5032664;28;20182;-81
2021/09/17 07:25:24;;;;;;;90.87;49.47;;;15.80;99.90;;;;;;5034190;28;20455;-81
2021/09/17 07:27:49;;;;;;;89.80;49.93;;;15.90;99.90;;;;;;5033717;28;20185;-81
2021/09/17 07:30:16;;;;;;;87.27;48.37;;;16.10;99.90;;;;;;5033708;28;20359;-82
2021/09/17 07:32:42;;;;;;;90.93;49.53;;;16.30;99.90;;;;;;5034415;28;20178;-81
2021/09/17 07:35:08;;;;;;;80.23;47.87;;;16.10;99.90;;;;;;5035303;28;20276;-82
2021/09/17 07:37:34;;;;;;;85.60;49.30;;;16.20;99.90;;;;;;5035704;28;20272;-82
2021/09/17 07:40:00;;;;;;;95.50;50.40;;;16.50;99.90;;;;;;5034861;28;20173;-83
2021/09/17 07:42:26;;;;;;;88.60;51.33;;;16.60;99.90;;;;;;5032413;28;20182;-81
2021/09/17 07:44:53;;;;;;;91.30;49.80;;;16.60;99.90;;;;;;5034286;28;20221;-80
2021/09/17 07:47:18;;;;;;;98.30;53.97;;;16.70;99.90;;;;;;5037171;28;20173;-81
2021/09/17 07:49:45;;;;;;;93.40;51.93;;;17.00;99.90;;;;;;5038591;28;20279;-81
2021/09/17 07:52:11;;;;;;;95.70;51.27;;;16.90;99.90;;;;;;5046635;28;20203;-80
2021/09/17 07:54:37;;;;;;;92.37;52.23;;;16.90;99.90;;;;;;5038140;28;20577;-80
2021/09/17 07:57:04;;;;;;;97.80;52.97;;;16.90;99.90;;;;;;5037300;28;20174;-82
2021/09/17 07:59:29;;;;;;;94.83;52.47;;;16.80;99.90;;;;;;5037517;28;20177;-83
2021/09/17 08:01:55;;;;;;;94.50;54.13;;;16.80;99.90;;;;;;5037753;28;20173;-80
2021/09/17 08:04:27;;;;;;;91.27;53.23;;;16.70;99.90;;;;;;5039159;28;20178;-82
2021/09/17 08:06:53;;;;;;;100.00;53.77;;;16.90;99.90;;;;;;5040781;28;20183;-81
2021/09/17 08:09:18;;;;;;;90.17;53.70;;;17.00;99.90;;;;;;5001480;28;20218;-80
2021/09/17 08:11:44;;;;;;;92.10;52.97;;;17.00;99.90;;;;;;5018064;28;20228;-83
2021/09/17 08:14:11;;;;;;;87.40;52.37;;;17.00;99.90;;;;;;5034188;28;20258;-81
2021/09/17 08:16:36;;;;;;;89.67;52.03;;;17.10;99.90;;;;;;5017983;28;20612;-81
2021/09/17 08:19:03;;;;;;;88.03;50.57;;;17.10;99.90;;;;;;5016846;28;20170;-82
2021/09/17 08:21:29;;;;;;;88.13;51.83;;;17.10;99.90;;;;;;5016324;28;20270;-81
2021/09/17 08:23:55;;;;;;;85.43;50.80;;;17.20;99.90;;;;;;5020897;28;20282;-87
2021/09/17 08:26:21;;;;;;;84.37;50.73;;;17.30;99.90;;;;;;5020548;28;20169;-88
2021/09/17 08:28:47;;;;;;;82.87;50.00;;;17.40;99.90;;;;;;5037179;28;20207;-82
2021/09/17 08:31:12;;;;;;;86.23;50.03;;;17.50;99.90;;;;;;5026095;28;20173;-86
2021/09/17 08:33:39;;;;;;;82.20;49.27;;;17.50;99.90;;;;;;5024545;28;20632;-89
2021/09/17 08:36:05;;;;;;;76.10;48.00;;;17.40;99.90;;;;;;5037323;28;20170;-80
2021/09/17 08:38:30;;;;;;;83.20;50.67;;;17.50;99.90;;;;;;5026019;28;20190;-85
2021/09/17 08:40:59;;;;;;;84.97;48.67;;;17.70;99.90;;;;;;5026237;28;20167;-87
2021/09/17 08:43:30;;;;;;;78.13;48.37;;;17.80;99.90;;;;;;5024177;28;20237;-83
2021/09/17 08:45:55;;;;;;;76.07;47.23;;;17.80;99.70;;;;;;5025003;28;20189;-90
2021/09/17 08:48:27;;;;;;;76.23;47.57;;;17.90;99.60;;;;;;5018829;28;20713;-86
2021/09/17 08:50:54;;;;;;;74.90;47.20;;;18.00;99.10;;;;;;5018674;28;20744;-91
2021/09/17 08:53:19;;;;;;;73.77;46.87;;;18.10;98.90;;;;;;5023792;28;20176;-86
2021/09/17 08:55:49;;;;;;;74.40;45.87;;;18.30;98.50;;;;;;5020192;28;20532;-84
2021/09/17 08:58:15;;;;;;;68.37;43.60;;;18.40;97.20;;;;;;5017786;28;20206;-91
2021/09/17 09:00:42;;;;;;;65.30;44.50;;;18.30;97.40;;;;;;5035771;28;20182;-91
2021/09/17 09:03:09;;;;;;;65.40;43.23;;;18.30;97.70;;;;;;5036795;28;20179;-84
2021/09/17 09:05:37;;;;;;;68.77;43.53;;;18.40;97.60;;;;;;5038799;28;20193;-81
2021/09/17 09:08:04;;;;;;;68.23;44.73;;;18.60;96.50;;;;;;5033674;28;20174;-89
2021/09/17 09:10:30;;;;;;;69.97;45.17;;;18.70;95.60;;;;;;5027493;28;20216;-88
2021/09/17 09:13:02;;;;;;;66.33;42.93;;;18.70;95.50;;;;;;5028209;28;20172;-90
2021/09/17 09:15:30;;;;;;;62.43;44.47;;;18.80;95.40;;;;;;5023574;28;20193;-87
2021/09/17 09:18:11;;;;;;;71.23;46.13;;;18.80;94.60;;;;;;5021303;28;20266;-85
2021/09/17 09:20:38;;;;;;;69.63;44.53;;;18.80;94.60;;;;;;5022564;28;20201;-88
2021/09/17 09:23:21;;;;;;;69.90;44.93;;;18.80;94.50;;;;;;5018888;28;20182;-83
2021/09/17 09:26:07;;;;;;;64.07;43.07;;;18.90;95.30;;;;;;5033616;28;20178;-82
2021/09/17 09:28:44;;;;;;;59.50;40.83;;;19.00;95.60;;;;;;5049902;28;20170;-83
2021/09/17 09:31:14;;;;;;;60.17;40.53;;;19.10;95.00;;;;;;5018629;28;20264;-86
2021/09/17 09:33:46;;;;;;;58.37;38.90;;;19.20;94.20;;;;;;5020323;28;20269;-81
2021/09/17 09:36:21;;;;;;;54.47;39.57;;;19.40;93.00;;;;;;5015711;28;20178;-82
2021/09/17 09:38:52;;;;;;;58.87;38.77;;;19.50;92.40;;;;;;5015183;28;20171;-83
2021/09/17 09:41:24;;;;;;;49.53;35.37;;;19.70;91.10;;;;;;5015635;28;20173;-81
2021/09/17 09:43:58;;;;;;;52.47;33.67;;;19.90;90.00;;;;;;5015346;28;20180;-81
2021/09/17 09:46:32;;;;;;;47.83;34.33;;;19.90;85.90;;;;;;5015259;28;20180;-81
2021/09/17 09:49:28;;;;;;;48.10;33.80;;;19.90;87.00;;;;;;5030634;28;20221;-82
2021/09/17 09:52:01;;;;;;;46.47;32.17;;;20.10;86.30;;;;;;5015574;28;20160;-82
2021/09/17 09:54:29;;;;;;;44.27;31.67;;;20.00;87.60;;;;;;5013976;28;20179;-81
2021/09/17 09:56:56;;;;;;;43.07;30.53;;;20.10;86.40;;;;;;5014905;28;20264;-81
2021/09/17 09:59:26;;;;;;;40.70;30.37;;;20.20;86.10;;;;;;4998019;28;20593;-82
2021/09/17 10:01:56;;;;;;;46.93;30.03;;;20.40;84.40;;;;;;5015171;28;20177;-83
2021/09/17 10:04:24;;;;;;;38.53;28.27;;;20.60;81.30;;;;;;5015121;28;20161;-83
2021/09/17 10:07:10;;;;;;;35.93;27.10;;;20.70;75.60;;;;;;4997898;28;20289;-82
2021/09/17 10:09:40;;;;;;;39.70;27.67;;;21.10;73.70;;;;;;5015335;28;20265;-86
2021/09/17 10:12:07;;;;;;;37.63;27.00;;;21.20;70.60;;;;;;5031649;28;20180;-89
2021/09/17 10:14:35;;;;;;;32.33;24.87;;;21.20;64.20;;;;;;5016071;28;20542;-85
2021/09/17 10:17:05;;;;;;;36.00;27.10;;;21.20;58.40;;;;;;5017668;28;20190;-84
2021/09/17 10:19:31;;;;;;;33.23;24.33;;;21.20;59.30;;;;;;5021962;28;20239;-85
2021/09/17 10:21:59;;;;;;;28.10;20.90;;;21.10;62.50;;;;;;5020284;28;20656;-80
2021/09/17 10:24:30;;;;;;;30.13;21.63;;;21.10;61.10;;;;;;5023922;28;20178;-80
2021/09/17 10:26:57;;;;;;;30.07;22.30;;;21.20;58.40;;;;;;5028597;28;20180;-81
2021/09/17 10:29:42;;;;;;;28.30;22.63;;;21.30;59.30;;;;;;5031526;28;20216;-80
2021/09/17 10:32:34;;;;;;;21.60;16.87;;;21.50;56.70;;;;;;5033049;28;20169;-80
2021/09/17 10:35:12;;;;;;;22.53;16.77;;;21.50;42.50;;;;;;5029484;28;20174;-83
2021/09/17 10:38:00;;;;;;;18.50;15.27;;;21.50;44.50;;;;;;5026250;28;20156;-82
2021/09/17 10:40:43;;;;;;;17.03;14.23;;;21.50;37.20;;;;;;5023012;28;20312;-85
2021/09/17 10:43:09;;;;;;;19.17;14.83;;;21.30;43.30;;;;;;5020852;28;20252;-83
2021/09/17 10:45:50;;;;;;;16.90;13.63;;;21.30;41.40;;;;;;5023329;28;20554;-80
2021/09/17 10:48:42;;;;;;;16.30;13.00;;;21.40;38.30;;;;;;5036657;28;20264;-88
2021/09/17 10:51:09;;;;;;;17.77;14.97;;;21.50;35.10;;;;;;5016392;28;20217;-90
2021/09/17 10:53:41;;;;;;;19.60;15.67;;;21.50;39.10;;;;;;5018422;28;20185;-86
2021/09/17 10:56:16;;;;;;;20.00;15.03;;;21.60;42.50;;;;;;5023245;28;20610;-83
2021/09/17 10:58:43;;;;;;;15.40;12.97;;;21.70;38.00;;;;;;5024054;28;20187;-82
2021/09/17 11:01:18;;;;;;;14.87;11.70;;;22.00;27.70;;;;;;5018414;28;20198;-81
2021/09/17 11:03:48;;;;;;;15.83;13.33;;;21.90;28.50;;;;;;5032915;28;20173;-81
2021/09/17 11:06:31;;;;;;;11.03;9.47;;;22.10;28.00;;;;;;5016945;28;20205;-85
2021/09/17 11:09:03;;;;;;;14.23;11.83;;;22.20;12.00;;;;;;5030857;28;20213;-81
2021/09/17 11:11:45;;;;;;;14.43;11.50;;;22.20;10.90;;;;;;5029917;28;20171;-83
2021/09/17 11:14:21;;;;;;;14.30;11.53;;;22.20;1.00;;;;;;5028853;28;20217;-83
2021/09/17 11:16:52;;;;;;;13.67;11.50;;;22.20;1.00;;;;;;5037442;28;20606;-81
2021/09/17 11:19:19;;;;;;;12.60;10.40;;;22.10;1.00;;;;;;5020644;28;20186;-83
2021/09/17 11:21:50;;;;;;;11.13;9.50;;;22.00;1.00;;;;;;5025354;28;20209;-81
2021/09/17 11:24:28;;;;;;;13.20;10.20;;;22.20;1.00;;;;;;5023017;28;20165;-83
2021/09/17 11:26:56;;;;;;;11.70;9.63;;;22.00;1.00;;;;;;5022961;28;20178;-82
2021/09/17 11:29:25;;;;;;;10.20;9.07;;;21.80;1.00;;;;;;5018596;28;20286;-81
2021/09/17 11:31:59;;;;;;;11.33;9.83;;;21.70;1.00;;;;;;5018516;28;20178;-81
2021/09/17 11:34:28;;;;;;;10.90;8.70;;;21.80;1.00;;;;;;5022049;28;20196;-81
2021/09/17 11:37:12;;;;;;;9.60;8.10;;;21.80;1.00;;;;;;5019416;28;20188;-80
2021/09/17 11:39:39;;;;;;;8.93;8.03;;;21.90;1.00;;;;;;5019185;28;20176;-80
2021/09/17 11:42:16;;;;;;;11.17;9.00;;;22.00;1.00;;;;;;5018201;28;20177;-82
2021/09/17 11:44:50;;;;;;;11.07;8.40;;;22.10;1.00;;;;;;5020291;28;20175;-83
2021/09/17 11:47:27;;;;;;;10.20;8.30;;;22.10;1.00;;;;;;5021527;28;20280;-82
2021/09/17 11:49:59;;;;;;;8.27;7.07;;;22.10;1.00;;;;;;5032994;28;20704;-80
2021/09/17 11:52:24;;;;;;;8.83;7.90;;;22.10;1.00;;;;;;5018285;28;20379;-80
2021/09/17 11:55:11;;;;;;;11.10;9.70;;;22.20;1.00;;;;;;5017983;28;20656;-85
2021/09/17 11:57:39;;;;;;;8.23;6.40;;;21.90;1.00;;;;;;5018097;28;20166;-85
2021/09/17 12:00:19;;;;;;;9.57;8.57;;;22.00;1.00;;;;;;5017596;28;20343;-88
2021/09/17 12:02:50;;;;;;;10.17;8.80;;;21.90;1.00;;;;;;5018199;28;20170;-88
2021/09/17 12:05:25;;;;;;;11.37;8.67;;;22.00;1.00;;;;;;5020572;28;20271;-87
2021/09/17 12:07:52;;;;;;;9.80;8.03;;;22.20;1.00;;;;;;5019422;28;20176;-88
2021/09/17 12:10:23;;;;;;;8.87;7.77;;;22.20;1.00;;;;;;5022225;28;20225;-82
2021/09/17 12:12:49;;;;;;;7.13;6.43;;;22.20;1.00;;;;;;5020079;28;20658;-88
2021/09/17 12:15:32;;;;;;;7.53;6.43;;;22.30;1.00;;;;;;5018460;28;20178;-89
2021/09/17 12:17:59;;;;;;;8.30;7.50;;;22.50;1.00;;;;;;5019347;28;20196;-87
2021/09/17 12:20:45;;;;;;;7.77;5.90;;;22.70;1.00;;;;;;5019655;28;20646;-86
2021/09/17 12:23:16;;;;;;;9.30;7.57;;;22.70;1.00;;;;;;5021475;28;20596;-87
2021/09/17 12:25:44;;;;;;;7.73;5.50;;;22.80;1.00;;;;;;5022988;28;20171;-82
2021/09/17 12:28:13;;;;;;;7.13;6.43;;;22.70;1.00;;;;;;5025819;28;20190;-83
2021/09/17 12:30:39;;;;;;;7.07;6.23;;;22.70;1.00;;;;;;5017333;28;20243;-82
2021/09/17 12:33:21;;;;;;;8.50;7.30;;;22.70;1.00;;;;;;5017687;28;20167;-83
2021/09/17 12:35:51;;;;;;;8.50;7.63;;;23.00;1.00;;;;;;5016192;28;20220;-82
2021/09/17 12:38:21;;;;;;;8.80;7.27;;;23.10;1.00;;;;;;5018558;28;20175;-81
2021/09/17 12:40:52;;;;;;;8.33;7.53;;;23.10;1.00;;;;;;5016133;28;20642;-82
2021/09/17 12:43:30;;;;;;;7.47;6.70;;;23.20;1.00;;;;;;5020482;28;20180;-81
2021/09/17 12:46:14;;;;;;;7.53;6.63;;;23.20;1.00;;;;;;5028709;28;20174;-82